Time;durP1;ratioP1;P1;durP2;ratioP2;P2;SDS_P1;SDS_P2;PMS_P1;PMS_P2;Temp;Humidity;BMP_temperature;BMP_pressure;BME280_temperature;BME280_humidity;BME280_pressure;Samples;Min_cycle;Max_cycle;Signal;HPM_P1;HPM_P2
2022/04/10 00:02:14;;;;;;;0.13;0.13;;;;;;;;;;5011173;28;21211;-68
2022/04/10 00:04:42;;;;;;;0.20;0.20;;;;;;;;;;5014076;28;20765;-68
2022/04/10 00:07:11;;;;;;;0.20;0.20;;;;;;;;;;5005973;28;20623;-68
2022/04/10 00:09:38;;;;;;;0.20;0.20;;;;;;;;;;5005852;28;20638;-68
2022/04/10 00:12:06;;;;;;;0.20;0.20;;;;;;;;;;5006373;28;20643;-68
2022/04/10 00:14:33;;;;;;;0.20;0.20;;;;;;;;;;5010390;28;20688;-68
2022/04/10 00:17:01;;;;;;;0.20;0.20;;;;;;;;;;5017431;28;20610;-67
2022/04/10 00:19:28;;;;;;;0.20;0.20;;;;;;;;;;5008106;28;20627;-67
2022/04/10 00:21:56;;;;;;;0.20;0.20;;;;;;;;;;5010288;28;20636;-67
2022/04/10 00:24:25;;;;;;;0.20;0.20;;;;;;;;;;5013630;28;20764;-67
2022/04/10 00:26:52;;;;;;;0.20;0.20;;;;;;;;;;5009255;28;20655;-67
2022/04/10 00:29:20;;;;;;;0.20;0.20;;;;;;;;;;5014177;28;21051;-69
2022/04/10 00:31:47;;;;;;;0.20;0.20;;;;;;;;;;5007563;28;20631;-68
2022/04/10 00:34:14;;;;;;;0.10;0.10;;;;;;;;;;5012401;28;20691;-68
2022/04/10 00:36:42;;;;;;;0.10;0.10;;;;;;;;;;5010419;28;20694;-68
2022/04/10 00:39:09;;;;;;;0.10;0.10;;;;;;;;;;5009745;28;20689;-68
2022/04/10 00:41:37;;;;;;;0.20;0.20;;;;;;;;;;5010598;28;20614;-67
2022/04/10 00:44:06;;;;;;;0.20;0.20;;;;;;;;;;5013140;28;20710;-68
2022/04/10 00:46:33;;;;;;;0.20;0.20;;;;;;;;;;5016534;28;20658;-69
2022/04/10 00:49:00;;;;;;;0.10;0.10;;;;;;;;;;5007239;28;20620;-68
2022/04/10 00:51:41;;;;;;;0.20;0.20;;;3.50;99.90;;;;;;5014291;28;20659;-67
2022/04/10 00:54:13;;;;;;;0.10;0.10;;;3.30;99.90;;;;;;5005272;28;20670;-68
2022/04/10 00:56:42;;;;;;;0.20;0.20;;;3.30;99.90;;;;;;5007152;28;20679;-67
2022/04/10 00:59:10;;;;;;;0.20;0.20;;;3.30;99.90;;;;;;5006414;28;20638;-68
2022/04/10 01:01:38;;;;;;;0.10;0.10;;;3.30;99.90;;;;;;5016631;28;20646;-68
2022/04/10 01:04:07;;;;;;;0.20;0.20;;;3.30;99.90;;;;;;5006305;28;20683;-68
2022/04/10 01:06:35;;;;;;;0.20;0.20;;;3.30;99.90;;;;;;5015633;28;20659;-67
2022/04/10 01:09:03;;;;;;;0.20;0.20;;;3.30;99.90;;;;;;5016082;28;20627;-68
2022/04/10 01:11:31;;;;;;;0.10;0.10;;;3.30;99.90;;;;;;5007973;28;20643;-68
2022/04/10 01:14:00;;;;;;;0.10;0.10;;;3.40;99.90;;;;;;5013560;28;20649;-68
2022/04/10 01:16:30;;;;;;;0.13;0.13;;;3.40;99.90;;;;;;5012581;28;20677;-68
2022/04/10 01:18:58;;;;;;;0.10;0.10;;;3.40;99.90;;;;;;5015042;28;20618;-69
2022/04/10 01:21:26;;;;;;;0.20;0.20;;;3.40;99.90;;;;;;5010637;28;20611;-68
2022/04/10 01:23:57;;;;;;;0.20;0.20;;;3.40;99.90;;;;;;5013505;28;21257;-68
2022/04/10 01:26:28;;;;;;;0.20;0.20;;;3.40;99.90;;;;;;5011063;28;20687;-67
2022/04/10 01:28:58;;;;;;;0.20;0.20;;;3.40;99.90;;;;;;5009124;28;21176;-67
2022/04/10 01:31:29;;;;;;;0.20;0.20;;;3.40;99.90;;;;;;5006569;28;20627;-68
2022/04/10 01:33:58;;;;;;;0.20;0.20;;;3.40;99.90;;;;;;5008406;28;20634;-68
2022/04/10 01:36:26;;;;;;;0.10;0.10;;;3.40;99.90;;;;;;5010601;28;20634;-68
2022/04/10 01:38:55;;;;;;;0.20;0.20;;;3.40;99.90;;;;;;5006129;28;20640;-68
2022/04/10 01:41:25;;;;;;;0.20;0.20;;;3.40;99.90;;;;;;5009339;28;20730;-68
2022/04/10 01:43:55;;;;;;;0.20;0.20;;;3.40;99.90;;;;;;5021928;28;20644;-68
2022/04/10 01:46:24;;;;;;;0.20;0.20;;;3.40;99.90;;;;;;5007710;28;20662;-68
2022/04/10 01:48:51;;;;;;;0.20;0.20;;;3.40;99.90;;;;;;5012437;28;20629;-68
2022/04/10 01:51:19;;;;;;;0.20;0.20;;;3.40;99.90;;;;;;5006149;28;20631;-68
2022/04/10 01:53:46;;;;;;;0.20;0.20;;;3.40;99.90;;;;;;5006649;28;20670;-68
2022/04/10 01:56:14;;;;;;;0.10;0.10;;;3.40;99.90;;;;;;5010682;28;20611;-67
2022/04/10 01:58:43;;;;;;;0.10;0.10;;;3.40;99.90;;;;;;5014433;28;20620;-68
2022/04/10 02:01:13;;;;;;;0.20;0.20;;;3.40;99.90;;;;;;5023552;28;20663;-67
2022/04/10 02:03:41;;;;;;;0.20;0.20;;;3.40;99.90;;;;;;5010900;28;21195;-68
2022/04/10 02:06:10;;;;;;;0.20;0.20;;;3.50;99.90;;;;;;5008204;28;20694;-68
2022/04/10 02:08:37;;;;;;;0.20;0.20;;;3.50;99.90;;;;;;5025037;28;20731;-68
2022/04/10 02:11:11;;;;;;;0.20;0.20;;;3.50;99.90;;;;;;5003551;28;20658;-68
2022/04/10 02:13:39;;;;;;;0.20;0.20;;;3.50;99.90;;;;;;5022368;28;20626;-68
2022/04/10 02:16:08;;;;;;;0.20;0.20;;;3.50;99.90;;;;;;5009076;28;20623;-68
2022/04/10 02:18:36;;;;;;;0.20;0.20;;;3.50;99.90;;;;;;5013036;28;20631;-69
2022/04/10 02:21:04;;;;;;;0.20;0.20;;;3.50;99.90;;;;;;5010888;28;20602;-68
2022/04/10 02:23:31;;;;;;;0.20;0.20;;;3.50;99.90;;;;;;5008375;28;20639;-68
2022/04/10 02:25:58;;;;;;;0.20;0.20;;;3.50;99.90;;;;;;5013273;28;20663;-68
2022/04/10 02:28:25;;;;;;;0.10;0.10;;;3.50;99.90;;;;;;5012731;28;20638;-68
2022/04/10 02:30:52;;;;;;;0.20;0.20;;;3.50;99.90;;;;;;5011265;28;20638;-68
2022/04/10 02:33:21;;;;;;;0.10;0.10;;;3.50;99.90;;;;;;5002435;28;20611;-69
2022/04/10 02:35:49;;;;;;;0.10;0.10;;;3.50;99.90;;;;;;5004939;28;20670;-67
2022/04/10 02:38:16;;;;;;;0.20;0.20;;;3.50;99.90;;;;;;5012948;28;20726;-68
2022/04/10 02:40:46;;;;;;;0.10;0.10;;;3.50;99.90;;;;;;5006998;28;20634;-67
2022/04/10 02:43:14;;;;;;;0.20;0.20;;;3.50;99.90;;;;;;5011432;28;20614;-67
2022/04/10 02:45:45;;;;;;;0.10;0.10;;;3.50;99.90;;;;;;5010195;28;20691;-69
2022/04/10 02:48:13;;;;;;;0.20;0.20;;;3.50;99.90;;;;;;5003676;28;20735;-67
2022/04/10 02:50:42;;;;;;;0.13;0.13;;;3.50;99.90;;;;;;5006482;28;20727;-68
2022/04/10 02:53:09;;;;;;;0.20;0.20;;;3.40;99.90;;;;;;5001693;28;20623;-68
2022/04/10 02:55:37;;;;;;;0.20;0.20;;;3.40;99.90;;;;;;5006539;28;20642;-68
2022/04/10 02:58:04;;;;;;;0.20;0.20;;;3.40;99.90;;;;;;5014435;28;20676;-68
2022/04/10 03:00:31;;;;;;;0.17;0.17;;;3.40;99.90;;;;;;5003674;28;20643;-67
2022/04/10 03:02:58;;;;;;;0.10;0.10;;;3.40;99.90;;;;;;5010176;28;20634;-67
2022/04/10 03:05:25;;;;;;;0.17;0.17;;;3.40;99.90;;;;;;5007668;28;20650;-68
2022/04/10 03:07:54;;;;;;;0.20;0.20;;;3.40;99.90;;;;;;5007720;28;20654;-68
2022/04/10 03:10:21;;;;;;;0.20;0.20;;;3.40;99.90;;;;;;5011986;28;20669;-68
2022/04/10 03:12:48;;;;;;;0.10;0.10;;;3.40;99.90;;;;;;5009325;28;20749;-68
2022/04/10 03:15:16;;;;;;;0.20;0.20;;;3.40;99.90;;;;;;5007704;28;20711;-68
2022/04/10 03:17:43;;;;;;;0.10;0.10;;;3.40;99.90;;;;;;5009602;28;20615;-67
2022/04/10 03:20:11;;;;;;;0.20;0.20;;;3.40;99.90;;;;;;5011806;28;20655;-68
2022/04/10 03:22:39;;;;;;;0.10;0.10;;;3.40;99.90;;;;;;5007574;28;20646;-68
2022/04/10 03:25:09;;;;;;;0.10;0.10;;;3.40;99.90;;;;;;5004100;28;20648;-68
2022/04/10 03:27:37;;;;;;;0.20;0.20;;;3.50;99.90;;;;;;5027565;28;20646;-67
2022/04/10 03:30:06;;;;;;;0.20;0.20;;;3.50;99.90;;;;;;5007553;28;20619;-67
2022/04/10 03:32:35;;;;;;;0.10;0.10;;;3.50;99.90;;;;;;5006611;28;20624;-68
2022/04/10 03:35:02;;;;;;;0.20;0.20;;;3.60;99.90;;;;;;5007961;28;21126;-68
2022/04/10 03:37:30;;;;;;;0.10;0.10;;;3.60;99.90;;;;;;5006115;28;20654;-67
2022/04/10 03:39:57;;;;;;;0.10;0.10;;;3.60;99.90;;;;;;5011531;28;20626;-68
2022/04/10 03:42:25;;;;;;;0.20;0.20;;;3.60;99.90;;;;;;5006297;28;20694;-68
2022/04/10 03:44:53;;;;;;;0.20;0.20;;;3.60;99.90;;;;;;5003007;28;20669;-68
2022/04/10 03:47:23;;;;;;;0.10;0.10;;;3.70;99.90;;;;;;5008932;28;20663;-68
2022/04/10 03:49:51;;;;;;;0.20;0.20;;;3.60;99.90;;;;;;5018426;28;20615;-68
2022/04/10 03:52:18;;;;;;;0.20;0.20;;;3.60;99.90;;;;;;5009721;28;20631;-68
2022/04/10 03:54:46;;;;;;;0.20;0.20;;;3.60;99.90;;;;;;5004770;28;20662;-68
2022/04/10 03:57:13;;;;;;;0.10;0.10;;;3.60;99.90;;;;;;5007139;28;20626;-68
2022/04/10 03:59:41;;;;;;;0.10;0.10;;;3.60;99.90;;;;;;5013179;28;20618;-68
2022/04/10 04:02:10;;;;;;;0.20;0.20;;;3.60;99.90;;;;;;5006596;28;20639;-67
2022/04/10 04:04:38;;;;;;;0.10;0.10;;;3.60;99.90;;;;;;5021055;28;20656;-68
2022/04/10 04:07:05;;;;;;;0.20;0.20;;;3.60;99.90;;;;;;5008719;28;20655;-68
2022/04/10 04:09:32;;;;;;;0.10;0.10;;;3.60;99.90;;;;;;5013376;28;20635;-67
2022/04/10 04:11:59;;;;;;;0.10;0.10;;;3.70;99.90;;;;;;5008431;28;20627;-68
2022/04/10 04:14:26;;;;;;;0.20;0.20;;;3.70;99.90;;;;;;5012394;28;20659;-67
2022/04/10 04:16:54;;;;;;;0.10;0.10;;;3.70;99.90;;;;;;5006985;28;20639;-68
2022/04/10 04:19:22;;;;;;;0.10;0.10;;;3.70;99.90;;;;;;5010581;28;20628;-69
2022/04/10 04:21:49;;;;;;;0.10;0.10;;;3.80;99.90;;;;;;5012281;28;20638;-67
2022/04/10 04:24:16;;;;;;;0.20;0.20;;;3.80;99.90;;;;;;5013983;28;20662;-68
2022/04/10 04:26:43;;;;;;;0.20;0.20;;;3.80;99.90;;;;;;5006775;28;20655;-67
2022/04/10 04:29:10;;;;;;;0.20;0.20;;;3.80;99.90;;;;;;5006203;28;20630;-68
2022/04/10 04:31:38;;;;;;;0.10;0.10;;;3.80;99.90;;;;;;5008103;28;20631;-68
2022/04/10 04:34:09;;;;;;;0.10;0.10;;;3.80;99.90;;;;;;5005877;28;20746;-68
2022/04/10 04:36:36;;;;;;;0.20;0.20;;;3.80;99.90;;;;;;5009989;28;20619;-68
2022/04/10 04:39:04;;;;;;;0.20;0.20;;;3.90;99.90;;;;;;5016114;28;20619;-67
2022/04/10 04:41:31;;;;;;;0.10;0.10;;;3.90;99.90;;;;;;5006625;28;20623;-68
2022/04/10 04:43:58;;;;;;;0.20;0.20;;;3.90;99.90;;;;;;5012344;28;21235;-67
2022/04/10 04:46:26;;;;;;;0.10;0.10;;;3.90;99.90;;;;;;5007778;28;20663;-68
2022/04/10 04:48:55;;;;;;;0.10;0.10;;;3.90;99.90;;;;;;5008603;28;20620;-68
2022/04/10 04:51:23;;;;;;;0.17;0.17;;;3.90;99.90;;;;;;5011417;28;20663;-68
2022/04/10 04:53:51;;;;;;;0.20;0.20;;;3.90;99.90;;;;;;5005737;28;20612;-67
2022/04/10 04:56:18;;;;;;;0.10;0.10;;;3.90;99.90;;;;;;5014227;28;20669;-68
2022/04/10 04:58:47;;;;;;;0.20;0.20;;;3.90;99.90;;;;;;5011599;28;20611;-68
2022/04/10 05:01:14;;;;;;;0.20;0.20;;;4.00;99.90;;;;;;5003126;28;20720;-68
2022/04/10 05:03:42;;;;;;;0.10;0.10;;;4.00;99.90;;;;;;5010895;28;20624;-68
2022/04/10 05:06:10;;;;;;;0.10;0.10;;;4.00;99.90;;;;;;5005080;28;20631;-69
2022/04/10 05:08:39;;;;;;;0.10;0.10;;;4.00;99.90;;;;;;5005256;28;20634;-68
2022/04/10 05:11:08;;;;;;;0.10;0.10;;;4.00;99.90;;;;;;5004495;28;20668;-67
2022/04/10 05:13:36;;;;;;;0.10;0.10;;;4.00;99.90;;;;;;5006085;28;20623;-67
2022/04/10 05:16:05;;;;;;;0.10;0.10;;;4.00;99.90;;;;;;5006194;28;21010;-68
2022/04/10 05:18:36;;;;;;;0.10;0.10;;;4.00;99.90;;;;;;5018005;28;20626;-69
2022/04/10 05:21:04;;;;;;;0.10;0.10;;;4.10;99.90;;;;;;5009847;28;20627;-67
2022/04/10 05:23:31;;;;;;;0.10;0.10;;;4.10;99.90;;;;;;5015866;28;20640;-69
2022/04/10 05:26:10;;;;;;;0.20;0.20;;;4.10;99.90;;;;;;5011703;28;20612;-68
2022/04/10 05:28:39;;;;;;;0.10;0.10;;;4.10;99.90;;;;;;5005272;28;20622;-69
2022/04/10 05:31:06;;;;;;;0.10;0.10;;;4.10;99.90;;;;;;5013527;28;20635;-67
2022/04/10 05:33:37;;;;;;;0.17;0.17;;;4.10;99.90;;;;;;5004804;28;20625;-68
2022/04/10 05:36:05;;;;;;;0.10;0.10;;;4.20;99.90;;;;;;5005481;28;20682;-68
2022/04/10 05:38:34;;;;;;;0.10;0.10;;;4.20;99.90;;;;;;5006568;28;20657;-67
2022/04/10 05:41:01;;;;;;;0.10;0.10;;;4.20;99.90;;;;;;5010646;28;20624;-68
2022/04/10 05:43:33;;;;;;;0.10;0.10;;;4.30;99.90;;;;;;5013823;28;20727;-68
2022/04/10 05:46:01;;;;;;;0.10;0.10;;;4.30;99.90;;;;;;5008253;28;20719;-68
2022/04/10 05:48:28;;;;;;;0.20;0.20;;;4.40;99.90;;;;;;5020824;28;20643;-68
2022/04/10 05:50:55;;;;;;;0.10;0.10;;;4.40;99.90;;;;;;5010378;28;20628;-67
2022/04/10 05:53:24;;;;;;;0.10;0.10;;;4.40;99.90;;;;;;5013333;28;20634;-68
2022/04/10 05:55:51;;;;;;;0.10;0.10;;;4.40;99.90;;;;;;5012484;28;20642;-68
2022/04/10 05:58:23;;;;;;;0.10;0.10;;;4.40;99.90;;;;;;5008003;28;20711;-68
2022/04/10 06:00:52;;;;;;;0.10;0.10;;;4.40;99.90;;;;;;5007230;28;20669;-67
2022/04/10 06:03:20;;;;;;;0.20;0.20;;;4.40;99.90;;;;;;5005024;28;20634;-68
2022/04/10 06:05:51;;;;;;;0.10;0.10;;;4.40;99.90;;;;;;5004788;28;20752;-68
2022/04/10 06:08:23;;;;;;;0.10;0.10;;;4.30;99.90;;;;;;5007648;28;21077;-68
2022/04/10 06:10:50;;;;;;;0.20;0.20;;;4.40;99.90;;;;;;5007610;28;20651;-68
2022/04/10 06:13:20;;;;;;;0.10;0.10;;;4.40;99.90;;;;;;5009567;28;20616;-68
2022/04/10 06:15:53;;;;;;;0.10;0.10;;;4.40;99.90;;;;;;5004818;28;20697;-68
2022/04/10 06:18:21;;;;;;;0.20;0.20;;;4.50;99.90;;;;;;5005821;28;20628;-67
2022/04/10 06:20:49;;;;;;;0.10;0.10;;;4.50;99.90;;;;;;5013378;28;21221;-67
2022/04/10 06:23:16;;;;;;;0.10;0.10;;;4.50;99.90;;;;;;5005635;28;20802;-67
2022/04/10 06:25:46;;;;;;;0.20;0.20;;;4.50;99.90;;;;;;5011903;28;20788;-67
2022/04/10 06:28:13;;;;;;;0.10;0.10;;;4.60;99.90;;;;;;5009484;28;20729;-68
2022/04/10 06:30:45;;;;;;;0.10;0.10;;;4.70;99.90;;;;;;5009886;28;20678;-68
2022/04/10 06:33:15;;;;;;;0.20;0.20;;;4.80;99.90;;;;;;4994568;28;20617;-69
2022/04/10 06:35:45;;;;;;;0.10;0.10;;;5.00;99.90;;;;;;5007756;28;20686;-69
2022/04/10 06:38:13;;;;;;;0.20;0.20;;;5.10;99.90;;;;;;5004089;28;20623;-69
2022/04/10 06:40:42;;;;;;;0.10;0.10;;;5.20;99.90;;;;;;5007211;28;20645;-69
2022/04/10 06:43:09;;;;;;;0.10;0.10;;;5.20;99.90;;;;;;5010580;28;20623;-69
2022/04/10 06:46:03;;;;;;;0.20;0.20;;;5.20;99.90;;;;;;5003594;28;20655;-69
2022/04/10 06:48:38;;;;;;;0.13;0.13;;;5.20;99.90;;;;;;4994929;28;20667;-70
2022/04/10 06:51:05;;;;;;;0.10;0.10;;;5.20;99.90;;;;;;5001369;28;20699;-70
2022/04/10 06:53:32;;;;;;;0.10;0.10;;;5.20;99.90;;;;;;5002785;28;20627;-69
2022/04/10 06:56:00;;;;;;;0.10;0.10;;;5.20;99.90;;;;;;5007074;28;20726;-69
2022/04/10 06:58:32;;;;;;;0.10;0.10;;;5.10;99.90;;;;;;4998460;28;20693;-68
2022/04/10 07:00:59;;;;;;;0.20;0.20;;;5.10;99.90;;;;;;5013070;28;20630;-68
2022/04/10 07:03:27;;;;;;;0.10;0.10;;;5.10;99.90;;;;;;5006912;28;20611;-68
2022/04/10 07:05:57;;;;;;;0.10;0.10;;;5.00;99.90;;;;;;5007610;28;20690;-68
2022/04/10 07:08:32;;;;;;;0.10;0.10;;;5.00;99.90;;;;;;5005814;28;20699;-68
2022/04/10 07:11:00;;;;;;;0.20;0.20;;;5.00;99.90;;;;;;5004216;28;20637;-68
2022/04/10 07:13:29;;;;;;;0.10;0.10;;;5.10;99.90;;;;;;5005912;28;20623;-68
2022/04/10 07:15:56;;;;;;;0.10;0.10;;;5.30;99.90;;;;;;5006221;28;20705;-67
2022/04/10 07:18:23;;;;;;;0.10;0.10;;;5.70;99.90;;;;;;5010895;28;20624;-69
2022/04/10 07:20:53;;;;;;;0.10;0.10;;;6.80;99.90;;;;;;5005247;28;20639;-69
2022/04/10 07:26:09;;;;;;;0.17;0.17;;;6.60;99.90;;;;;;5012882;28;20631;-68
2022/04/10 07:28:37;;;;;;;0.10;0.10;;;6.70;99.90;;;;;;5009310;28;20655;-67
2022/04/10 07:31:06;;;;;;;0.10;0.10;;;6.60;99.90;;;;;;5009167;28;20615;-70
2022/04/10 07:33:35;;;;;;;0.10;0.10;;;6.80;99.90;;;;;;5029565;28;20634;-67
2022/04/10 07:36:13;;;;;;;0.10;0.10;;;7.10;99.90;;;;;;5008398;28;20627;-68
2022/04/10 07:38:41;;;;;;;0.10;0.10;;;7.40;99.90;;;;;;5009325;28;20632;-68
2022/04/10 07:41:13;;;;;;;0.20;0.20;;;7.50;99.90;;;;;;5008479;28;20623;-68
2022/04/10 07:43:46;;;;;;;0.10;0.10;;;7.60;99.90;;;;;;5018366;28;20630;-70
2022/04/10 07:49:06;;;;;;;0.10;0.10;;;7.50;99.90;;;;;;5014916;28;20721;-68
2022/04/10 07:51:40;;;;;;;0.17;0.17;;;7.60;99.90;;;;;;5006719;28;20674;-67
2022/04/10 07:54:31;;;;;;;0.10;0.10;;;7.80;99.90;;;;;;5010198;28;20669;-69
2022/04/10 07:56:59;;;;;;;0.10;0.10;;;8.20;99.90;;;;;;5015510;28;20623;-69
2022/04/10 07:59:30;;;;;;;0.20;0.20;;;8.20;99.90;;;;;;5016617;28;20709;-68
2022/04/10 08:01:58;;;;;;;0.20;0.20;;;8.20;99.90;;;;;;5006330;28;20750;-68
2022/04/10 08:04:28;;;;;;;0.10;0.10;;;8.10;99.90;;;;;;5011738;28;20678;-68
2022/04/10 08:06:58;;;;;;;0.10;0.10;;;8.10;99.90;;;;;;5008380;28;20631;-69
2022/04/10 08:09:25;;;;;;;0.10;0.10;;;8.00;99.90;;;;;;5009882;28;20726;-68
2022/04/10 08:11:54;;;;;;;0.10;0.10;;;8.00;99.90;;;;;;5006023;28;20639;-68
2022/04/10 08:14:21;;;;;;;0.10;0.10;;;7.80;99.90;;;;;;5022975;28;20652;-68
2022/04/10 08:16:48;;;;;;;0.10;0.10;;;7.80;99.90;;;;;;5015513;28;20606;-68
2022/04/10 08:19:18;;;;;;;0.10;0.10;;;7.70;99.90;;;;;;5015241;28;20626;-68
2022/04/10 08:21:45;;;;;;;0.10;0.10;;;7.60;99.90;;;;;;5015686;28;20623;-68
2022/04/10 08:24:12;;;;;;;0.10;0.10;;;7.80;99.90;;;;;;5010865;28;20643;-69
2022/04/10 08:26:39;;;;;;;0.10;0.10;;;7.80;99.90;;;;;;5014644;28;20618;-68
2022/04/10 08:29:08;;;;;;;0.10;0.10;;;7.90;99.90;;;;;;5018139;28;20668;-69
2022/04/10 08:31:35;;;;;;;0.10;0.10;;;7.80;99.90;;;;;;5011588;28;20619;-68
2022/04/10 08:34:02;;;;;;;0.10;0.10;;;7.70;99.90;;;;;;5008824;28;20740;-68
2022/04/10 08:36:29;;;;;;;0.10;0.10;;;7.70;99.90;;;;;;5014438;28;20722;-68
2022/04/10 08:38:57;;;;;;;0.10;0.10;;;7.70;99.90;;;;;;5008920;28;20632;-68
2022/04/10 08:41:31;;;;;;;0.10;0.10;;;7.80;99.90;;;;;;5009223;28;20666;-68
2022/04/10 08:44:01;;;;;;;0.10;0.10;;;7.90;99.90;;;;;;5007943;28;20635;-68
2022/04/10 08:46:31;;;;;;;0.10;0.10;;;8.00;99.90;;;;;;5008553;28;20624;-68
2022/04/10 08:49:00;;;;;;;0.10;0.10;;;8.30;99.90;;;;;;5006363;28;20658;-68
2022/04/10 08:51:29;;;;;;;0.10;0.10;;;8.30;99.90;;;;;;5010682;28;21149;-68
2022/04/10 08:53:56;;;;;;;0.20;0.20;;;8.30;99.90;;;;;;5010620;28;20631;-69
2022/04/10 08:56:26;;;;;;;0.10;0.10;;;8.30;99.90;;;;;;5010172;28;20612;-68
2022/04/10 08:58:53;;;;;;;0.10;0.10;;;8.20;99.90;;;;;;5006279;28;20631;-68
2022/04/10 09:01:22;;;;;;;0.10;0.10;;;8.30;99.90;;;;;;5009677;28;20619;-68
2022/04/10 09:03:50;;;;;;;0.10;0.10;;;8.40;99.90;;;;;;5005530;28;20639;-68
2022/04/10 09:06:17;;;;;;;0.10;0.10;;;8.30;99.90;;;;;;5007900;28;20635;-69
2022/04/10 09:08:44;;;;;;;0.10;0.10;;;8.30;99.90;;;;;;5016281;28;21544;-68
2022/04/10 09:11:12;;;;;;;0.10;0.10;;;8.20;99.90;;;;;;5006087;28;20738;-68
2022/04/10 09:13:41;;;;;;;0.10;0.10;;;8.10;99.90;;;;;;5027418;28;21203;-68
2022/04/10 09:16:12;;;;;;;0.10;0.10;;;8.20;99.90;;;;;;5008402;28;20627;-69
2022/04/10 09:18:46;;;;;;;0.10;0.10;;;;;;;;;;5026676;28;20621;-68
2022/04/10 09:21:15;;;;;;;0.10;0.10;;;;;;;;;;5003111;28;20655;-68
2022/04/10 09:23:45;;;;;;;0.10;0.10;;;;;;;;;;4999470;28;20627;-69
2022/04/10 09:26:13;;;;;;;0.10;0.10;;;;;;;;;;5009473;28;20651;-68
2022/04/10 09:28:42;;;;;;;0.10;0.10;;;;;;;;;;5011646;28;20701;-68
2022/04/10 09:31:24;;;;;;;0.10;0.10;;;;;;;;;;5004006;28;20627;-69
2022/04/10 09:33:52;;;;;;;0.10;0.10;;;;;;;;;;5005055;28;20623;-69
2022/04/10 09:36:30;;;;;;;0.10;0.10;;;;;;;;;;5006349;28;20697;-69
2022/04/10 09:38:57;;;;;;;0.10;0.10;;;;;;;;;;5008217;28;20627;-69
2022/04/10 09:41:24;;;;;;;0.10;0.10;;;;;;;;;;5007367;28;21208;-68
2022/04/10 09:43:52;;;;;;;0.10;0.10;;;;;;;;;;5006481;28;20656;-69
2022/04/10 09:46:19;;;;;;;0.10;0.10;;;;;;;;;;5011284;28;20625;-69
2022/04/10 09:48:46;;;;;;;0.10;0.10;;;;;;;;;;5006404;28;20677;-69
2022/04/10 09:51:14;;;;;;;0.10;0.10;;;;;;;;;;5012257;28;20615;-68
2022/04/10 09:54:01;;;;;;;0.10;0.10;;;;;;;;;;5012019;28;20624;-68
2022/04/10 09:56:29;;;;;;;0.10;0.10;;;;;;;;;;5006009;28;20702;-68
2022/04/10 09:58:57;;;;;;;0.10;0.10;;;;;;;;;;5005709;28;20701;-69
2022/04/10 10:01:27;;;;;;;0.10;0.10;;;;;;;;;;5007889;28;20620;-68
2022/04/10 10:03:56;;;;;;;0.10;0.10;;;;;;;;;;5013991;28;20670;-71
2022/04/10 10:06:27;;;;;;;0.10;0.10;;;;;;;;;;5005435;28;20617;-68
2022/04/10 10:08:56;;;;;;;0.10;0.10;;;;;;;;;;5008660;28;20652;-68
2022/04/10 10:11:23;;;;;;;0.10;0.10;;;;;;;;;;5011941;28;20631;-68
2022/04/10 10:13:52;;;;;;;0.10;0.10;;;;;;;;;;5008528;28;20611;-68
2022/04/10 10:16:20;;;;;;;0.10;0.10;;;;;;;;;;5006361;28;20611;-68
2022/04/10 10:18:47;;;;;;;0.10;0.10;;;;;;;;;;5008923;28;20702;-67
2022/04/10 10:21:15;;;;;;;0.10;0.10;;;;;;;;;;5008717;28;20763;-68
2022/04/10 10:23:46;;;;;;;0.10;0.10;;;;;;;;;;5010543;28;20770;-69
2022/04/10 10:26:24;;;;;;;0.10;0.10;;;;;;;;;;5010756;28;20762;-68
2022/04/10 10:29:07;;;;;;;0.10;0.10;;;;;;;;;;5014952;28;20685;-69
2022/04/10 10:31:56;;;;;;;0.10;0.10;;;;;;;;;;5001056;28;20651;-68
2022/04/10 10:34:25;;;;;;;0.10;0.10;;;;;;;;;;4996889;28;20741;-68
2022/04/10 10:36:54;;;;;;;0.10;0.10;;;;;;;;;;5005110;28;20623;-69
2022/04/10 10:39:22;;;;;;;0.10;0.10;;;;;;;;;;5005955;28;21184;-69
2022/04/10 10:41:53;;;;;;;0.10;0.10;;;;;;;;;;5005715;28;21134;-69
2022/04/10 10:44:42;;;;;;;0.10;0.10;;;;;;;;;;5008252;28;20635;-69
2022/04/10 10:47:17;;;;;;;0.10;0.10;;;;;;;;;;5009188;28;20623;-68
2022/04/10 10:49:45;;;;;;;0.10;0.10;;;;;;;;;;4999023;28;20228;-68
2022/04/10 10:52:13;;;;;;;0.10;0.10;;;;;;;;;;5021812;28;20624;-69
2022/04/10 10:54:51;;;;;;;0.10;0.10;;;;;;;;;;5006050;28;20228;-68
2022/04/10 10:57:28;;;;;;;0.10;0.10;;;;;;;;;;5000588;28;20699;-69
2022/04/10 11:00:05;;;;;;;0.10;0.10;;;;;;;;;;5009876;28;20634;-68
2022/04/10 11:02:33;;;;;;;0.10;0.10;;;;;;;;;;5006195;28;20647;-68
2022/04/10 11:05:01;;;;;;;0.10;0.10;;;;;;;;;;5008262;28;20663;-68
2022/04/10 11:07:28;;;;;;;0.10;0.10;;;;;;;;;;5019138;28;20200;-68
2022/04/10 11:09:58;;;;;;;0.10;0.10;;;;;;;;;;5007682;28;20657;-69
2022/04/10 11:12:32;;;;;;;0.10;0.10;;;;;;;;;;5006152;28;20205;-69
2022/04/10 11:15:03;;;;;;;0.10;0.10;;;;;;;;;;5005981;28;20220;-69
2022/04/10 11:17:31;;;;;;;0.10;0.10;;;;;;;;;;5010562;28;20212;-69
2022/04/10 11:20:00;;;;;;;0.10;0.10;;;;;;;;;;5010974;28;20238;-69
2022/04/10 11:22:31;;;;;;;0.10;0.10;;;;;;;;;;4997654;28;20911;-69
2022/04/10 11:25:00;;;;;;;0.10;0.10;;;;;;;;;;5000450;28;20655;-69
2022/04/10 11:27:49;;;;;;;0.10;0.10;;;;;;;;;;5002616;28;20701;-68
2022/04/10 11:30:21;;;;;;;0.13;0.13;;;;;;;;;;5000399;28;20746;-69
2022/04/10 11:32:50;;;;;;;0.10;0.10;;;;;;;;;;5006736;28;20611;-69
2022/04/10 11:35:19;;;;;;;0.10;0.10;;;;;;;;;;5004223;28;20699;-69
2022/04/10 11:37:47;;;;;;;0.10;0.10;;;;;;;;;;5002008;28;20623;-68
2022/04/10 11:40:15;;;;;;;0.10;0.10;;;;;;;;;;5004996;28;20627;-68
2022/04/10 11:42:44;;;;;;;0.10;0.10;;;;;;;;;;5010334;28;20619;-69
2022/04/10 11:45:13;;;;;;;0.10;0.10;;;;;;;;;;5006059;28;20671;-69
2022/04/10 11:47:42;;;;;;;0.10;0.10;;;;;;;;;;5000633;28;21216;-69
2022/04/10 11:50:13;;;;;;;0.10;0.10;;;;;;;;;;5021354;28;20652;-68
2022/04/10 11:52:41;;;;;;;0.10;0.10;;;;;;;;;;5005361;28;20646;-68
2022/04/10 11:55:09;;;;;;;0.00;0.00;;;;;;;;;;5008804;28;20220;-68
2022/04/10 11:57:40;;;;;;;0.10;0.10;;;;;;;;;;5013868;28;20641;-68
2022/04/10 12:00:09;;;;;;;0.10;0.10;;;;;;;;;;5001965;28;21004;-69
2022/04/10 12:02:39;;;;;;;0.10;0.10;;;;;;;;;;5014741;28;20218;-68
2022/04/10 12:05:09;;;;;;;0.10;0.10;;;;;;;;;;5006081;28;20228;-69
2022/04/10 12:07:41;;;;;;;0.10;0.10;;;;;;;;;;5009248;28;20197;-68
2022/04/10 12:10:09;;;;;;;0.10;0.10;;;;;;;;;;5004220;28;20233;-69
2022/04/10 12:12:37;;;;;;;0.10;0.10;;;;;;;;;;5010596;28;20205;-69
2022/04/10 12:15:16;;;;;;;0.10;0.10;;;;;;;;;;5008820;28;20308;-68
2022/04/10 12:17:44;;;;;;;0.10;0.10;;;;;;;;;;5018017;28;20207;-69
2022/04/10 12:20:12;;;;;;;0.10;0.10;;;;;;;;;;5009657;28;20197;-69
2022/04/10 12:22:40;;;;;;;0.10;0.10;;;;;;;;;;5004497;28;20255;-70
2022/04/10 12:25:08;;;;;;;0.10;0.10;;;;;;;;;;5009694;28;20658;-69
2022/04/10 12:27:35;;;;;;;0.10;0.10;;;;;;;;;;5011612;28;20662;-68
2022/04/10 12:30:06;;;;;;;0.10;0.10;;;;;;;;;;5013679;28;20216;-69
2022/04/10 12:32:34;;;;;;;0.10;0.10;;;;;;;;;;5005090;28;20653;-69
2022/04/10 12:35:09;;;;;;;0.10;0.10;;;;;;;;;;5005932;28;20229;-68
2022/04/10 12:37:37;;;;;;;0.10;0.10;;;;;;;;;;5009980;28;20254;-69
2022/04/10 12:40:05;;;;;;;0.10;0.10;;;;;;;;;;5003524;28;20690;-68
2022/04/10 12:42:39;;;;;;;0.10;0.10;;;;;;;;;;4998116;28;20209;-68
2022/04/10 12:45:08;;;;;;;0.10;0.10;;;;;;;;;;5003775;28;20228;-68
2022/04/10 12:47:43;;;;;;;0.00;0.00;;;;;;;;;;5027196;28;20199;-68
2022/04/10 12:50:13;;;;;;;0.00;0.00;;;;;;;;;;4997254;28;20225;-69
2022/04/10 12:52:41;;;;;;;0.10;0.10;;;;;;;;;;5000150;28;20196;-68
2022/04/10 12:55:18;;;;;;;0.00;0.00;;;;;;;;;;5009964;28;20224;-68
2022/04/10 12:57:53;;;;;;;0.10;0.10;;;;;;;;;;5015085;28;20203;-69
2022/04/10 13:00:30;;;;;;;0.00;0.00;;;;;;;;;;5009421;28;20196;-69
2022/04/10 13:02:57;;;;;;;0.10;0.10;;;;;;;;;;5009455;28;20295;-68
2022/04/10 13:05:26;;;;;;;0.10;0.10;;;;;;;;;;5007342;28;20216;-69
2022/04/10 13:07:57;;;;;;;0.10;0.10;;;;;;;;;;5010781;28;20292;-68
2022/04/10 13:10:25;;;;;;;0.10;0.10;;;;;;;;;;5010673;28;20306;-68
2022/04/10 13:13:03;;;;;;;0.00;0.00;;;;;;;;;;5007407;28;20196;-68
2022/04/10 13:15:31;;;;;;;0.10;0.10;;;;;;;;;;5015633;28;20239;-68
2022/04/10 13:17:59;;;;;;;0.10;0.10;;;;;;;;;;5010514;28;20205;-70
2022/04/10 13:20:28;;;;;;;0.00;0.00;;;;;;;;;;5015549;28;20193;-69
2022/04/10 13:22:55;;;;;;;0.10;0.10;;;;;;;;;;5015096;28;20208;-69
2022/04/10 13:25:23;;;;;;;0.00;0.00;;;;;;;;;;5006424;28;20343;-69
2022/04/10 13:27:52;;;;;;;0.10;0.10;;;;;;;;;;5003874;28;20201;-68
2022/04/10 13:30:20;;;;;;;0.10;0.10;;;;;;;;;;5013896;28;20224;-69
2022/04/10 13:32:47;;;;;;;0.00;0.00;;;;;;;;;;5007284;28;20197;-69
2022/04/10 13:35:16;;;;;;;0.10;0.10;;;;;;;;;;5006426;28;20355;-68
2022/04/10 13:37:45;;;;;;;0.03;0.03;;;;;;;;;;5006438;28;20278;-69
2022/04/10 13:40:13;;;;;;;0.10;0.10;;;;;;;;;;5005572;28;20197;-68
2022/04/10 13:42:40;;;;;;;0.10;0.10;;;;;;;;;;5017960;28;20188;-68
2022/04/10 13:45:08;;;;;;;0.10;0.10;;;;;;;;;;5009762;28;20343;-69
2022/04/10 13:47:36;;;;;;;0.10;0.10;;;;;;;;;;5005924;28;20200;-68
2022/04/10 13:50:03;;;;;;;0.10;0.10;;;;;;;;;;5007470;28;20216;-68
2022/04/10 13:52:31;;;;;;;0.10;0.10;;;;;;;;;;5006385;28;20201;-69